createdAt,value
2019-03-05T00:00:18.649Z,29.00
2019-03-05T00:02:48.487Z,19.95
2019-03-05T00:05:18.524Z,39.45
2019-03-05T00:07:48.825Z,37.23
2019-03-05T00:10:19.023Z,30.75
2019-03-05T00:12:48.810Z,31.85
2019-03-05T00:15:22.953Z,25.70
2019-03-05T00:17:52.821Z,25.68
2019-03-05T00:20:22.895Z,22.77
2019-03-05T00:22:53.934Z,28.62
2019-03-05T00:25:42.200Z,22.42
2019-03-05T00:28:53.449Z,31.07
2019-03-05T00:31:41.626Z,32.15
2019-03-05T00:35:08.885Z,23.47
2019-03-05T00:38:05.560Z,32.73
2019-03-05T00:41:16.113Z,35.68
2019-03-05T00:44:39.150Z,31.33
2019-03-05T00:48:12.167Z,27.87
2019-03-05T00:51:59.554Z,25.05
2019-03-05T00:55:29.470Z,32.38
2019-03-05T00:58:45.404Z,24.80
2019-03-05T01:02:14.207Z,27.32
2019-03-05T01:05:00.423Z,25.37
2019-03-05T01:07:30.267Z,24.47
2019-03-05T01:10:00.034Z,26.27
2019-03-05T01:12:30.321Z,28.20
2019-03-05T01:15:00.349Z,28.17
2019-03-05T01:17:30.058Z,27.67
2019-03-05T01:19:59.809Z,30.40
2019-03-05T01:22:29.476Z,30.60
2019-03-05T01:24:59.462Z,26.37
2019-03-05T01:27:29.291Z,29.65
2019-03-05T01:29:59.123Z,30.37
2019-03-05T01:32:48.362Z,25.15
2019-03-05T01:35:32.154Z,25.95
2019-03-05T01:38:02.008Z,29.42
2019-03-05T01:40:44.654Z,33.33
2019-03-05T01:43:14.358Z,26.80
2019-03-05T01:45:44.454Z,34.73
2019-03-05T01:48:14.318Z,27.55
2019-03-05T01:50:44.447Z,33.25
2019-03-05T01:53:14.370Z,28.75
2019-03-05T01:55:44.193Z,46.55
2019-03-05T01:58:13.879Z,37.98
2019-03-05T02:00:43.925Z,23.75
2019-03-05T02:03:13.906Z,33.10
2019-03-05T02:05:43.655Z,27.07
2019-03-05T02:08:13.455Z,33.33
2019-03-05T02:10:43.585Z,29.32
2019-03-05T02:13:13.314Z,27.02
2019-03-05T02:15:43.069Z,33.85
2019-03-05T02:18:17.746Z,34.78
2019-03-05T02:20:47.719Z,31.27
2019-03-05T02:23:27.921Z,28.75
2019-03-05T02:26:06.111Z,38.53
2019-03-05T02:29:25.133Z,38.35
2019-03-05T02:32:24.646Z,40.70
2019-03-05T02:35:37.592Z,37.38
2019-03-05T02:38:59.488Z,32.05
2019-03-05T02:41:44.051Z,53.23
2019-03-05T02:44:49.502Z,44.63
2019-03-05T02:47:57.919Z,45.40
2019-03-05T02:51:09.039Z,39.50
2019-03-05T02:53:54.007Z,30.25
2019-03-05T02:59:04.399Z,44.60
2019-03-05T03:01:46.511Z,51.68
2019-03-05T03:04:18.224Z,42.67
2019-03-05T03:06:47.983Z,50.35
2019-03-05T03:10:11.716Z,34.03
2019-03-05T03:12:41.682Z,40.45
2019-03-05T03:15:13.127Z,47.33
2019-03-05T03:17:43.863Z,45.55
2019-03-05T03:20:18.101Z,41.55
2019-03-05T03:22:51.628Z,45.30
2019-03-05T03:25:22.673Z,67.50
2019-03-05T03:27:52.984Z,52.55
2019-03-05T03:30:27.070Z,62.27
2019-03-05T03:32:57.257Z,49.83
2019-03-05T03:35:27.592Z,59.73
2019-03-05T03:38:02.139Z,80.92
2019-03-05T03:40:35.370Z,49.80
2019-03-05T03:43:06.014Z,63.92
2019-03-05T03:45:37.010Z,46.75
2019-03-05T03:48:07.106Z,44.13
2019-03-05T03:50:37.091Z,44.70
2019-03-05T03:53:10.724Z,29.37
2019-03-05T03:55:41.478Z,73.12
2019-03-05T03:58:11.739Z,76.65
2019-03-05T04:00:42.186Z,74.03
2019-03-05T04:03:17.733Z,37.28
2019-03-05T04:05:49.344Z,39.27
2019-03-05T04:08:20.462Z,36.55
2019-03-05T04:10:57.462Z,46.70
2019-03-05T04:13:34.441Z,34.83
2019-03-05T04:16:08.242Z,47.20
2019-03-05T04:18:43.738Z,58.00
2019-03-05T04:21:22.203Z,43.58
2019-03-05T04:23:56.678Z,40.70
2019-03-05T04:26:53.885Z,48.85
2019-03-05T04:29:32.213Z,39.15
2019-03-05T04:32:23.718Z,53.87
2019-03-05T04:34:59.452Z,29.48
2019-03-05T04:37:35.727Z,33.95
2019-03-05T04:40:11.141Z,43.80
2019-03-05T04:42:49.905Z,38.45
2019-03-05T04:52:31.281Z,50.83
2019-03-05T04:55:12.962Z,25.05
2019-03-05T05:01:24.495Z,29.98
2019-03-05T05:04:00.024Z,28.17
2019-03-05T05:06:45.487Z,28.50
2019-03-05T05:12:43.363Z,34.85
2019-03-05T05:15:35.917Z,48.87
2019-03-05T05:21:01.784Z,28.52
2019-03-05T05:23:45.945Z,20.27
2019-03-05T05:26:23.964Z,24.70
2019-03-05T05:29:15.127Z,27.05
2019-03-05T05:32:03.380Z,26.35
2019-03-05T05:34:37.665Z,30.92
2019-03-05T05:37:08.600Z,22.17
2019-03-05T05:40:25.037Z,23.98
2019-03-05T05:42:55.654Z,25.57
2019-03-05T05:45:28.703Z,20.68
2019-03-05T05:48:02.250Z,28.98
2019-03-05T05:50:33.389Z,22.75
2019-03-05T05:53:04.343Z,35.00
2019-03-05T05:55:34.800Z,29.48
2019-03-05T05:58:04.682Z,19.05
2019-03-05T06:00:39.551Z,21.17
2019-03-05T06:03:10.131Z,27.80
2019-03-05T06:05:40.708Z,24.90
2019-03-05T06:08:12.352Z,22.30
2019-03-05T06:10:42.618Z,30.82
2019-03-05T06:13:12.944Z,48.42
2019-03-05T06:15:43.379Z,21.65
2019-03-05T06:18:13.631Z,24.82
2019-03-05T06:20:44.235Z,29.50
2019-03-05T06:23:15.103Z,20.95
2019-03-05T06:25:45.615Z,27.98
2019-03-05T06:28:18.139Z,22.30
2019-03-05T06:30:49.756Z,22.65
2019-03-05T06:33:20.770Z,27.87
2019-03-05T06:35:51.196Z,25.05
2019-03-05T06:38:27.852Z,17.65
2019-03-05T06:41:02.755Z,21.80
2019-03-05T06:43:37.771Z,58.55
2019-03-05T06:46:12.919Z,22.90
2019-03-05T06:48:58.246Z,24.85
2019-03-05T06:51:32.792Z,24.12
2019-03-05T06:54:12.876Z,33.00
2019-03-05T06:56:45.741Z,21.02
2019-03-05T06:59:17.394Z,26.33
2019-03-05T07:01:58.099Z,21.17
2019-03-05T07:04:32.289Z,27.32
2019-03-05T07:07:05.127Z,21.87
2019-03-05T07:10:37.362Z,29.77
2019-03-05T07:13:19.255Z,22.67
2019-03-05T07:16:05.338Z,17.65
2019-03-05T07:19:01.519Z,17.75
2019-03-05T07:27:35.770Z,24.87
2019-03-05T07:30:21.272Z,22.62
2019-03-05T07:32:52.552Z,23.15
2019-03-05T07:35:24.915Z,32.80
2019-03-05T07:37:55.154Z,20.00
2019-03-05T07:40:25.515Z,23.45
2019-03-05T07:43:07.967Z,22.32
2019-03-05T07:45:39.176Z,24.95
2019-03-05T07:48:09.378Z,27.73
2019-03-05T07:50:39.496Z,21.07
2019-03-05T07:53:11.019Z,23.90
2019-03-05T07:55:46.769Z,25.75
2019-03-05T07:58:17.508Z,29.57
2019-03-05T08:00:50.783Z,27.82
2019-03-05T08:03:22.383Z,26.30
2019-03-05T08:05:52.765Z,24.98
2019-03-05T08:08:58.659Z,28.73
2019-03-05T08:11:31.804Z,24.10
2019-03-05T08:15:07.829Z,17.20
2019-03-05T08:17:46.838Z,31.77
2019-03-05T08:20:21.522Z,22.73
2019-03-05T08:22:53.404Z,28.40
2019-03-05T08:25:30.500Z,41.05
2019-03-05T08:28:04.919Z,25.17
2019-03-05T08:30:39.801Z,24.02
2019-03-05T08:33:13.636Z,25.08
2019-03-05T08:35:44.548Z,32.63
2019-03-05T08:38:16.666Z,25.23
2019-03-05T08:40:47.819Z,31.12
2019-03-05T08:43:18.747Z,26.87
2019-03-05T08:45:50.811Z,26.70
2019-03-05T08:49:01.137Z,27.73
2019-03-05T08:51:32.707Z,32.48
2019-03-05T08:54:07.953Z,29.65
2019-03-05T08:56:38.627Z,26.85
2019-03-05T08:59:09.256Z,32.33
2019-03-05T09:01:41.937Z,41.48
2019-03-05T09:04:19.557Z,34.85
2019-03-05T09:06:51.545Z,34.70
2019-03-05T09:09:26.674Z,35.73
2019-03-05T09:12:02.037Z,45.98
2019-03-05T09:14:34.576Z,42.20
2019-03-05T09:17:07.116Z,44.58
2019-03-05T09:19:38.796Z,38.92
2019-03-05T09:22:09.560Z,52.50
2019-03-05T09:24:41.371Z,38.08
2019-03-05T09:27:11.681Z,49.60
2019-03-05T09:29:41.866Z,45.43
2019-03-05T09:32:13.559Z,47.20
2019-03-05T09:34:43.824Z,52.38
2019-03-05T09:37:14.157Z,44.48
2019-03-05T09:39:44.508Z,40.08
2019-03-05T09:42:14.853Z,62.33
2019-03-05T09:44:44.975Z,38.78
2019-03-05T09:47:14.777Z,46.45
2019-03-05T09:49:44.724Z,44.15
2019-03-05T09:52:14.506Z,59.45
2019-03-05T09:54:44.386Z,53.75
2019-03-05T09:57:14.792Z,47.55
2019-03-05T09:59:44.774Z,50.12
2019-03-05T10:02:14.829Z,55.98
2019-03-05T10:04:45.287Z,49.48
2019-03-05T10:07:18.870Z,45.33
2019-03-05T10:13:15.338Z,53.40
2019-03-05T10:15:45.596Z,47.93
2019-03-05T10:18:16.064Z,52.48
2019-03-05T10:20:46.105Z,45.20
2019-03-05T10:23:16.944Z,45.08
2019-03-05T10:25:47.556Z,45.95
2019-03-05T10:28:17.722Z,46.08
2019-03-05T10:30:47.942Z,44.27
2019-03-05T10:33:18.843Z,48.48
2019-03-05T10:35:49.441Z,53.20
2019-03-05T10:38:19.899Z,51.68
2019-03-05T10:40:49.580Z,53.98
2019-03-05T10:43:20.328Z,56.53
2019-03-05T10:45:50.548Z,55.63
2019-03-05T10:48:20.916Z,62.25
2019-03-05T10:50:51.475Z,52.60
2019-03-05T10:53:21.783Z,60.85
2019-03-05T10:55:52.834Z,78.97
2019-03-05T10:58:33.271Z,56.68
2019-03-05T11:00:58.983Z,58.55
2019-03-05T11:03:30.743Z,55.58
2019-03-05T11:06:09.255Z,68.10
2019-03-05T11:08:39.624Z,62.60
2019-03-05T11:11:13.866Z,60.88
2019-03-05T11:13:48.859Z,52.40
2019-03-05T11:16:30.346Z,58.45
2019-03-05T11:18:52.779Z,63.35
2019-03-05T11:21:25.088Z,61.02
2019-03-05T11:23:55.200Z,61.92
2019-03-05T11:26:25.318Z,57.93
2019-03-05T11:28:55.491Z,56.60
2019-03-05T11:31:25.861Z,49.40
2019-03-05T11:33:55.976Z,50.38
2019-03-05T11:36:26.153Z,58.28
2019-03-05T11:38:56.431Z,43.85
2019-03-05T11:41:26.258Z,45.85
2019-03-05T11:43:57.648Z,54.70
2019-03-05T11:46:27.808Z,51.25
2019-03-05T11:48:57.753Z,50.38
2019-03-05T11:51:28.717Z,43.70
2019-03-05T11:53:58.787Z,44.05
2019-03-05T11:56:28.843Z,63.23
2019-03-05T11:58:58.927Z,52.08
2019-03-05T12:01:33.287Z,52.53
2019-03-05T12:04:06.082Z,51.95
2019-03-05T12:06:36.319Z,57.85
2019-03-05T12:09:07.115Z,45.70
2019-03-05T12:11:37.229Z,55.67
2019-03-05T12:14:07.103Z,49.48
2019-03-05T12:16:38.247Z,81.85
2019-03-05T12:19:08.310Z,60.60
2019-03-05T12:21:38.064Z,52.83
2019-03-05T12:24:08.389Z,54.40
2019-03-05T12:26:38.198Z,61.25
2019-03-05T12:29:09.033Z,52.78
2019-03-05T12:31:39.011Z,50.75
2019-03-05T12:34:12.122Z,44.58
2019-03-05T12:36:43.341Z,64.00
2019-03-05T12:45:06.518Z,48.08
2019-03-05T12:47:37.006Z,62.23
2019-03-05T12:50:11.263Z,54.40
2019-03-05T12:52:41.776Z,49.70
2019-03-05T12:55:12.609Z,59.20
2019-03-05T12:57:43.050Z,48.90
2019-03-05T13:00:18.324Z,53.35
2019-03-05T13:02:55.033Z,53.75
2019-03-05T13:05:25.448Z,57.48
2019-03-05T13:07:56.576Z,59.70
2019-03-05T13:10:34.798Z,60.88
2019-03-05T13:13:00.078Z,50.00
2019-03-05T13:15:30.370Z,52.55
2019-03-05T13:18:00.095Z,54.80
2019-03-05T13:20:30.135Z,60.00
2019-03-05T13:23:00.255Z,82.57
2019-03-05T13:25:31.157Z,53.10
2019-03-05T13:28:04.015Z,66.72
2019-03-05T13:30:34.351Z,64.37
2019-03-05T13:33:04.558Z,71.90
2019-03-05T13:35:34.785Z,62.30
2019-03-05T13:38:07.381Z,73.22
2019-03-05T13:40:38.332Z,73.07
2019-03-05T13:43:09.457Z,65.17
2019-03-05T13:45:48.074Z,75.35
2019-03-05T13:48:22.368Z,80.77
2019-03-05T13:51:24.218Z,77.17
2019-03-05T13:54:12.843Z,70.03
2019-03-05T13:57:29.138Z,70.25
2019-03-05T13:59:59.334Z,60.65
2019-03-05T14:02:53.342Z,68.45
2019-03-05T14:06:00.975Z,60.63
2019-03-05T14:09:22.084Z,53.05
2019-03-05T14:11:53.900Z,58.28
2019-03-05T14:14:30.626Z,66.42
2019-03-05T14:17:21.248Z,66.07
2019-03-05T14:19:51.525Z,52.27
2019-03-05T14:22:22.116Z,57.23
2019-03-05T14:25:01.502Z,81.90
2019-03-05T14:27:24.248Z,71.40
2019-03-05T14:29:55.006Z,68.55
2019-03-05T14:32:25.271Z,78.20
2019-03-05T14:35:16.760Z,62.95
2019-03-05T14:37:47.270Z,62.08
2019-03-05T14:40:25.155Z,75.05
2019-03-05T14:42:55.398Z,66.35
2019-03-05T14:45:27.891Z,68.55
2019-03-05T14:47:59.237Z,68.47
2019-03-05T14:50:29.882Z,72.62
2019-03-05T14:53:00.067Z,70.35
2019-03-05T14:55:31.046Z,77.40
2019-03-05T14:58:00.906Z,69.32
2019-03-05T15:00:31.146Z,63.00
2019-03-05T15:03:01.270Z,75.37
2019-03-05T15:05:31.918Z,74.95
2019-03-05T15:08:02.237Z,43.87
2019-03-05T15:10:32.846Z,65.95
2019-03-05T15:13:14.939Z,72.03
2019-03-05T15:15:35.910Z,63.50
2019-03-05T15:18:09.245Z,56.40
2019-03-05T15:20:40.406Z,62.70
2019-03-05T15:23:10.963Z,56.58
2019-03-05T15:25:41.273Z,54.42
2019-03-05T15:28:11.942Z,51.85
2019-03-05T15:30:44.559Z,47.43
2019-03-05T15:33:20.144Z,32.23
2019-03-05T15:35:50.679Z,37.85
2019-03-05T15:38:22.077Z,47.17
2019-03-05T15:40:52.118Z,37.08
2019-03-05T15:43:22.712Z,37.58
2019-03-05T15:45:53.203Z,37.70
2019-03-05T15:48:23.324Z,35.43
2019-03-05T15:50:53.330Z,30.97
2019-03-05T15:53:27.362Z,34.67
2019-03-05T15:55:56.154Z,35.83
2019-03-05T15:58:27.105Z,36.17
2019-03-05T16:00:57.242Z,32.85
2019-03-05T16:03:27.817Z,33.28
2019-03-05T16:05:59.449Z,34.75
2019-03-05T16:08:32.445Z,30.23
2019-03-05T16:11:12.574Z,32.38
2019-03-05T16:13:43.057Z,33.02
2019-03-05T16:16:14.036Z,26.55
2019-03-05T16:18:44.258Z,28.62
2019-03-05T16:21:15.013Z,24.72
2019-03-05T16:23:45.289Z,27.37
2019-03-05T16:26:16.386Z,26.10
2019-03-05T16:28:46.687Z,23.52
2019-03-05T16:31:49.172Z,25.10
2019-03-05T16:34:45.829Z,20.95
2019-03-05T16:37:32.853Z,23.67
2019-03-05T16:40:22.375Z,24.87
2019-03-05T16:43:29.880Z,24.57
2019-03-05T16:46:17.708Z,21.17
2019-03-05T16:49:10.223Z,25.25
2019-03-05T16:52:02.592Z,15.78
2019-03-05T16:54:48.584Z,23.85
2019-03-05T16:57:46.679Z,17.65
2019-03-05T17:00:30.990Z,24.40
2019-03-05T17:03:20.697Z,24.87
2019-03-05T17:06:02.109Z,17.90
2019-03-05T17:08:49.558Z,17.30
2019-03-05T17:11:44.575Z,18.40
2019-03-05T17:14:14.504Z,10.85
2019-03-05T17:16:44.463Z,27.70
2019-03-05T17:19:14.426Z,21.37
2019-03-05T17:21:44.680Z,18.05
2019-03-05T17:24:14.839Z,17.00
2019-03-05T17:26:44.778Z,17.82
2019-03-05T17:29:14.821Z,12.82
2019-03-05T17:31:44.996Z,21.85
2019-03-05T17:34:15.038Z,18.62
2019-03-05T17:36:45.973Z,17.65
2019-03-05T17:39:21.277Z,19.02
2019-03-05T17:41:52.173Z,19.23
2019-03-05T17:44:22.456Z,16.45
2019-03-05T17:46:58.390Z,14.78
2019-03-05T17:49:29.176Z,14.33
2019-03-05T17:52:01.331Z,14.95
2019-03-05T17:54:32.235Z,16.48
2019-03-05T17:57:03.375Z,23.10
2019-03-05T17:59:35.527Z,12.53
2019-03-05T18:02:06.143Z,15.13
2019-03-05T18:04:36.874Z,20.57
2019-03-05T18:07:12.331Z,23.95
2019-03-05T18:09:43.625Z,15.15
2019-03-05T18:12:14.186Z,23.12
2019-03-05T18:14:53.161Z,15.98
2019-03-05T18:17:29.882Z,15.70
2019-03-05T18:20:01.689Z,20.20
2019-03-05T18:22:33.239Z,23.05
2019-03-05T18:25:12.152Z,17.23
2019-03-05T18:27:45.248Z,17.62
2019-03-05T18:30:24.614Z,17.20
2019-03-05T18:33:00.786Z,16.80
2019-03-05T18:35:39.085Z,15.30
2019-03-05T18:38:21.434Z,15.25
2019-03-05T18:41:06.091Z,12.75
2019-03-05T18:43:40.136Z,12.70
2019-03-05T18:46:10.917Z,13.95
2019-03-05T18:48:43.690Z,24.55
2019-03-05T18:51:14.906Z,19.75
2019-03-05T18:53:47.737Z,13.60
2019-03-05T18:56:20.333Z,19.85
2019-03-05T18:58:52.690Z,16.62
2019-03-05T19:01:25.199Z,21.12
2019-03-05T19:03:57.157Z,18.92
2019-03-05T19:06:47.141Z,18.65
2019-03-05T19:09:19.607Z,18.85
2019-03-05T19:11:50.710Z,18.42
2019-03-05T19:14:23.616Z,16.73
2019-03-05T19:16:58.732Z,16.62
2019-03-05T19:19:30.468Z,22.98
2019-03-05T19:22:00.977Z,17.25
2019-03-05T19:24:31.042Z,19.85
2019-03-05T19:27:01.975Z,24.63
2019-03-05T19:29:32.365Z,17.17
2019-03-05T19:32:02.833Z,20.50
2019-03-05T19:34:34.862Z,15.30
2019-03-05T19:37:07.156Z,17.52
2019-03-05T19:39:37.740Z,22.42
2019-03-05T19:42:08.374Z,16.65
2019-03-05T19:44:41.042Z,13.85
2019-03-05T19:47:17.123Z,15.28
2019-03-05T19:49:47.697Z,17.65
2019-03-05T19:52:19.287Z,15.43
2019-03-05T19:54:49.602Z,16.20
2019-03-05T19:57:20.643Z,19.35
2019-03-05T19:59:51.131Z,15.75
2019-03-05T20:02:23.737Z,14.53
2019-03-05T20:04:55.557Z,14.43
2019-03-05T20:07:28.021Z,11.45
2019-03-05T20:09:59.319Z,14.65
2019-03-05T20:12:31.731Z,13.38
2019-03-05T20:15:02.677Z,13.32
2019-03-05T20:17:32.617Z,12.37
2019-03-05T20:20:03.138Z,14.60
2019-03-05T20:22:34.125Z,15.08
2019-03-05T20:25:07.585Z,14.23
2019-03-05T20:27:38.288Z,13.18
2019-03-05T20:30:12.435Z,9.20
2019-03-05T20:32:43.223Z,15.57
2019-03-05T20:35:14.245Z,14.35
2019-03-05T20:37:44.963Z,13.70
2019-03-05T20:40:17.124Z,15.05
2019-03-05T20:42:47.636Z,12.37
2019-03-05T20:45:20.559Z,18.80
2019-03-05T20:47:53.847Z,12.45
2019-03-05T20:50:25.401Z,14.75
2019-03-05T20:52:57.200Z,16.62
2019-03-05T20:55:28.011Z,10.60
2019-03-05T20:58:01.878Z,14.30
2019-03-05T21:00:35.769Z,12.33
2019-03-05T21:03:06.322Z,8.95
2019-03-05T21:05:38.845Z,13.85
2019-03-05T21:08:09.472Z,23.32
2019-03-05T21:10:40.589Z,18.62
2019-03-05T21:13:11.613Z,20.82
2019-03-05T21:15:46.583Z,18.57
2019-03-05T21:18:19.540Z,17.52
2019-03-05T21:20:50.987Z,20.55
2019-03-05T21:23:23.551Z,15.40
2019-03-05T21:25:56.529Z,10.75
2019-03-05T21:28:30.437Z,15.55
2019-03-05T21:31:03.012Z,9.00
2019-03-05T21:33:36.998Z,14.78
2019-03-05T21:36:08.890Z,12.18
2019-03-05T21:38:41.733Z,10.90
2019-03-05T21:41:13.092Z,9.10
2019-03-05T21:43:43.756Z,14.40
2019-03-05T21:46:18.315Z,14.93
2019-03-05T21:48:49.767Z,14.78
2019-03-05T21:51:23.513Z,11.50
2019-03-05T21:53:55.866Z,17.50
2019-03-05T21:56:34.326Z,15.40
2019-03-05T21:59:05.691Z,12.50
2019-03-05T22:01:38.019Z,11.88
2019-03-05T22:04:09.565Z,17.23
2019-03-05T22:06:41.314Z,12.00
2019-03-05T22:09:12.161Z,12.85
2019-03-05T22:11:45.119Z,11.33
2019-03-05T22:14:19.175Z,11.50
2019-03-05T22:16:50.956Z,10.85
2019-03-05T22:19:25.788Z,13.95
2019-03-05T22:21:57.050Z,14.43
2019-03-05T22:24:29.593Z,15.72
2019-03-05T22:27:01.202Z,10.78
2019-03-05T22:29:32.057Z,15.00
2019-03-05T22:32:02.725Z,10.80
2019-03-05T22:34:34.960Z,12.45
2019-03-05T22:37:06.802Z,14.80
2019-03-05T22:39:38.514Z,11.10
2019-03-05T22:42:09.456Z,14.83
2019-03-05T22:44:39.686Z,14.10
2019-03-05T22:47:11.525Z,11.08
2019-03-05T22:49:42.883Z,10.28
2019-03-05T22:52:13.627Z,17.57
2019-03-05T22:54:43.863Z,10.90
2019-03-05T22:57:14.563Z,14.73
2019-03-05T22:59:45.366Z,15.08
2019-03-05T23:02:16.135Z,11.33
2019-03-05T23:04:47.035Z,13.70
2019-03-05T23:07:17.488Z,12.68
2019-03-05T23:09:48.494Z,11.65
2019-03-05T23:12:19.190Z,12.58
2019-03-05T23:14:50.680Z,13.78
2019-03-05T23:17:23.265Z,11.85
2019-03-05T23:19:54.469Z,12.78
2019-03-05T23:22:25.331Z,11.18
2019-03-05T23:24:56.274Z,11.48
2019-03-05T23:27:26.957Z,12.00
2019-03-05T23:29:58.337Z,12.10
2019-03-05T23:32:29.561Z,14.03
2019-03-05T23:35:00.646Z,12.40
2019-03-05T23:37:31.099Z,14.47
2019-03-05T23:40:01.984Z,12.73
2019-03-05T23:42:32.090Z,14.98
2019-03-05T23:45:03.073Z,14.50
2019-03-05T23:47:33.355Z,11.78
2019-03-05T23:50:04.215Z,10.30
2019-03-05T23:52:34.899Z,13.58
2019-03-05T23:55:05.377Z,15.20
2019-03-05T23:57:35.743Z,17.55
